createdAt,value
2019-02-25T00:02:31.441Z,6.27
2019-02-25T00:05:00.016Z,5.70
2019-02-25T00:07:28.466Z,5.63
2019-02-25T00:09:56.962Z,5.37
2019-02-25T00:12:25.424Z,6.00
2019-02-25T00:14:53.936Z,5.73
2019-02-25T00:17:22.480Z,5.33
2019-02-25T00:19:51.045Z,5.33
2019-02-25T00:22:19.528Z,6.10
2019-02-25T00:24:48.072Z,6.00
2019-02-25T00:27:16.527Z,6.57
2019-02-25T00:29:44.996Z,5.90
2019-02-25T00:32:13.473Z,6.10
2019-02-25T00:34:41.970Z,6.10
2019-02-25T00:37:10.417Z,6.10
2019-02-25T00:39:38.921Z,5.87
2019-02-25T00:42:07.472Z,6.00
2019-02-25T00:44:35.961Z,6.00
2019-02-25T00:47:04.579Z,5.50
2019-02-25T00:49:33.115Z,5.50
2019-02-25T00:52:01.597Z,5.77
2019-02-25T00:54:30.084Z,5.20
2019-02-25T00:56:58.633Z,6.27
2019-02-25T00:59:27.089Z,5.40
2019-02-25T01:01:55.588Z,5.23
2019-02-25T01:04:24.132Z,5.77
2019-02-25T01:06:52.769Z,5.07
2019-02-25T01:09:21.315Z,5.37
2019-02-25T01:11:49.889Z,6.30
2019-02-25T01:14:18.376Z,5.80
2019-02-25T01:16:46.898Z,5.10
2019-02-25T01:19:15.373Z,5.37
2019-02-25T01:21:43.838Z,5.57
2019-02-25T01:24:12.318Z,5.23
2019-02-25T01:26:40.786Z,5.23
2019-02-25T01:29:09.285Z,5.70
2019-02-25T01:31:37.845Z,5.77
2019-02-25T01:34:06.409Z,6.20
2019-02-25T01:36:34.867Z,4.90
2019-02-25T01:39:04.533Z,5.50
2019-02-25T01:41:33.017Z,5.63
2019-02-25T01:44:01.560Z,5.90
2019-02-25T01:46:30.037Z,5.80
2019-02-25T01:48:58.580Z,5.60
2019-02-25T01:51:27.027Z,5.43
2019-02-25T01:53:55.537Z,5.60
2019-02-25T01:56:24.075Z,5.30
2019-02-25T01:58:52.571Z,5.27
2019-02-25T02:01:21.030Z,4.87
2019-02-25T02:03:49.529Z,6.10
2019-02-25T02:06:18.001Z,6.37
2019-02-25T02:08:46.547Z,5.43
2019-02-25T02:11:15.099Z,5.80
2019-02-25T02:13:43.577Z,5.80
2019-02-25T02:16:12.060Z,5.87
2019-02-25T02:18:40.587Z,5.30
2019-02-25T02:21:10.128Z,5.50
2019-02-25T02:23:38.676Z,5.80
2019-02-25T02:26:07.170Z,6.30
2019-02-25T02:28:35.713Z,5.80
2019-02-25T02:31:04.286Z,4.87
2019-02-25T02:33:32.835Z,5.37
2019-02-25T02:36:01.407Z,5.70
2019-02-25T02:38:29.859Z,5.17
2019-02-25T02:40:58.363Z,5.60
2019-02-25T02:43:26.810Z,5.13
2019-02-25T02:46:03.990Z,5.43
2019-02-25T02:48:41.083Z,5.80
2019-02-25T02:51:09.562Z,5.27
2019-02-25T02:53:38.044Z,5.10
2019-02-25T02:56:06.622Z,6.03
2019-02-25T02:58:35.078Z,5.33
2019-02-25T03:01:03.532Z,5.30
2019-02-25T03:03:32.013Z,6.03
2019-02-25T03:06:00.492Z,5.30
2019-02-25T03:08:29.048Z,5.33
2019-02-25T03:10:57.526Z,4.47
2019-02-25T03:13:26.868Z,4.90
2019-02-25T03:15:55.396Z,5.17
2019-02-25T03:18:23.884Z,4.70
2019-02-25T03:20:52.367Z,4.90
2019-02-25T03:23:20.912Z,5.13
2019-02-25T03:25:49.387Z,4.67
2019-02-25T03:28:17.883Z,5.27
2019-02-25T03:30:46.434Z,4.83
2019-02-25T03:33:14.983Z,5.23
2019-02-25T03:35:43.451Z,5.10
2019-02-25T03:38:11.941Z,5.03
2019-02-25T03:40:40.393Z,5.27
2019-02-25T03:43:08.951Z,5.00
2019-02-25T03:45:37.488Z,4.83
2019-02-25T03:48:05.969Z,5.63
2019-02-25T03:50:34.466Z,4.73
2019-02-25T03:53:02.998Z,5.00
2019-02-25T03:55:31.559Z,5.57
2019-02-25T03:58:00.016Z,4.90
2019-02-25T04:00:28.563Z,4.80
2019-02-25T04:02:57.472Z,4.70
2019-02-25T04:05:25.970Z,5.73
2019-02-25T04:07:54.497Z,5.63
2019-02-25T04:10:22.973Z,5.30
2019-02-25T04:12:51.535Z,5.40
2019-02-25T04:15:22.188Z,5.40
2019-02-25T04:17:50.723Z,5.97
2019-02-25T04:20:19.347Z,5.40
2019-02-25T04:22:47.884Z,5.30
2019-02-25T04:25:16.350Z,5.53
2019-02-25T04:27:44.894Z,5.13
2019-02-25T04:30:16.816Z,5.77
2019-02-25T04:32:45.362Z,5.50
2019-02-25T04:35:14.554Z,5.70
2019-02-25T04:37:43.282Z,5.63
2019-02-25T04:40:13.620Z,5.47
2019-02-25T04:42:42.133Z,6.03
2019-02-25T04:45:18.316Z,5.63
2019-02-25T04:47:46.880Z,5.87
2019-02-25T04:50:15.428Z,5.17
2019-02-25T04:52:44.028Z,5.50
2019-02-25T04:55:13.574Z,6.40
2019-02-25T04:57:42.047Z,5.60
2019-02-25T05:00:19.386Z,5.90
2019-02-25T05:02:47.867Z,5.83
2019-02-25T05:05:16.329Z,5.50
2019-02-25T05:07:44.814Z,5.63
2019-02-25T05:10:14.783Z,5.47
2019-02-25T05:12:47.349Z,5.67
2019-02-25T05:15:17.638Z,6.03
2019-02-25T05:17:46.162Z,5.20
2019-02-25T05:20:14.720Z,5.30
2019-02-25T05:22:43.180Z,5.70
2019-02-25T05:25:12.346Z,5.70
2019-02-25T05:27:40.868Z,5.00
2019-02-25T05:30:18.300Z,6.10
2019-02-25T05:32:46.742Z,6.20
2019-02-25T05:35:15.238Z,5.73
2019-02-25T05:37:43.792Z,5.57
2019-02-25T05:40:16.389Z,4.87
2019-02-25T05:42:44.936Z,5.77
2019-02-25T05:45:14.827Z,6.53
2019-02-25T05:47:43.281Z,6.30
2019-02-25T05:50:16.940Z,6.17
2019-02-25T05:52:45.459Z,6.17
2019-02-25T05:55:17.302Z,6.93
2019-02-25T05:57:45.910Z,6.83
2019-02-25T06:00:18.906Z,6.77
2019-02-25T06:02:47.558Z,6.20
2019-02-25T06:05:16.100Z,6.23
2019-02-25T06:07:44.681Z,6.60
2019-02-25T06:10:13.968Z,6.90
2019-02-25T06:12:42.515Z,6.23
2019-02-25T06:15:15.947Z,6.20
2019-02-25T06:17:44.430Z,5.70
2019-02-25T06:20:14.515Z,5.77
2019-02-25T06:22:43.081Z,6.30
2019-02-25T06:25:13.203Z,7.17
2019-02-25T06:27:41.827Z,7.97
2019-02-25T06:30:20.669Z,7.00
2019-02-25T06:32:49.163Z,6.73
2019-02-25T06:35:17.857Z,6.47
2019-02-25T06:37:46.390Z,6.70
2019-02-25T06:40:18.472Z,5.77
2019-02-25T06:42:47.071Z,6.43
2019-02-25T06:45:20.413Z,6.93
2019-02-25T06:47:48.965Z,8.40
2019-02-25T06:58:17.918Z,6.23
2019-02-25T07:00:46.420Z,7.50
2019-02-25T07:03:14.971Z,7.43
2019-02-25T07:05:47.790Z,6.93
2019-02-25T07:08:17.899Z,6.60
2019-02-25T07:10:57.168Z,6.33
2019-02-25T07:13:27.293Z,6.70
2019-02-25T07:16:13.370Z,6.97
2019-02-25T07:18:43.550Z,6.83
2019-02-25T07:21:19.558Z,7.40
2019-02-25T07:23:52.136Z,5.83
2019-02-25T07:26:36.841Z,6.70
2019-02-25T07:29:06.998Z,6.93
2019-02-25T07:31:37.151Z,7.07
2019-02-25T07:34:22.212Z,6.77
2019-02-25T07:37:08.078Z,7.10
2019-02-25T07:39:38.185Z,6.43
2019-02-25T07:42:20.012Z,6.23
2019-02-25T07:44:50.126Z,6.90
2019-02-25T07:47:26.262Z,6.80
2019-02-25T07:50:05.320Z,6.60
2019-02-25T07:52:44.176Z,7.20
2019-02-25T07:55:14.406Z,6.27
2019-02-25T07:57:44.524Z,6.37
2019-02-25T08:00:17.196Z,6.07
2019-02-25T08:03:04.411Z,6.90
2019-02-25T08:05:50.698Z,6.57
2019-02-25T08:08:23.674Z,6.27
2019-02-25T08:10:56.520Z,6.63
2019-02-25T08:13:26.623Z,6.47
2019-02-25T08:15:59.428Z,7.23
2019-02-25T08:18:29.614Z,6.67
2019-02-25T08:20:59.796Z,7.53
2019-02-25T08:23:35.736Z,6.90
2019-02-25T08:26:15.007Z,7.43
2019-02-25T08:28:48.196Z,7.10
2019-02-25T08:31:18.320Z,6.60
2019-02-25T08:33:55.543Z,6.37
2019-02-25T08:36:49.573Z,7.20
2019-02-25T08:39:25.616Z,6.87
2019-02-25T08:41:55.621Z,8.27
2019-02-25T08:44:40.806Z,6.77
2019-02-25T08:47:13.912Z,7.27
2019-02-25T08:49:44.023Z,7.50
2019-02-25T08:52:12.580Z,8.23
2019-02-25T08:54:41.062Z,11.27
2019-02-25T08:57:09.696Z,12.77
2019-02-25T08:59:38.225Z,7.80
2019-02-25T09:02:06.872Z,7.70
2019-02-25T09:04:35.429Z,7.57
2019-02-25T09:07:03.985Z,6.83
2019-02-25T09:09:32.535Z,7.23
2019-02-25T09:12:01.029Z,7.80
2019-02-25T09:14:29.508Z,7.10
2019-02-25T09:16:57.981Z,7.63
2019-02-25T09:19:26.468Z,8.10
2019-02-25T09:21:54.925Z,7.90
2019-02-25T09:24:23.415Z,8.43
2019-02-25T09:26:51.975Z,8.63
2019-02-25T09:29:20.540Z,7.80
2019-02-25T09:31:49.024Z,8.57
2019-02-25T09:34:17.522Z,8.33
2019-02-25T09:36:45.979Z,7.27
2019-02-25T09:39:14.467Z,7.63
2019-02-25T09:41:43.272Z,6.53
2019-02-25T09:44:11.764Z,7.40
2019-02-25T09:46:40.258Z,8.43
2019-02-25T09:49:08.810Z,9.30
2019-02-25T09:51:37.337Z,8.80
2019-02-25T09:54:05.934Z,8.47
2019-02-25T09:56:37.276Z,7.77
2019-02-25T09:59:04.714Z,7.27
2019-02-25T10:01:33.207Z,7.30
2019-02-25T10:04:01.687Z,8.27
2019-02-25T10:06:30.165Z,7.97
2019-02-25T10:08:58.631Z,8.83
2019-02-25T10:11:27.121Z,7.43
2019-02-25T10:13:55.608Z,7.87
2019-02-25T10:16:24.168Z,7.20
2019-02-25T10:18:52.693Z,7.80
2019-02-25T10:21:21.197Z,8.37
2019-02-25T10:23:49.657Z,8.43
2019-02-25T10:26:18.141Z,8.33
2019-02-25T10:28:46.604Z,8.43
2019-02-25T10:31:15.703Z,7.77
2019-02-25T10:33:45.269Z,6.90
2019-02-25T10:36:13.769Z,6.37
2019-02-25T10:38:42.315Z,7.10
2019-02-25T10:41:10.853Z,8.73
2019-02-25T10:43:39.411Z,8.97
2019-02-25T10:46:09.520Z,7.17
2019-02-25T10:48:38.183Z,7.77
2019-02-25T10:51:09.259Z,7.23
2019-02-25T10:53:37.907Z,7.83
2019-02-25T10:56:09.502Z,6.53
2019-02-25T10:58:37.993Z,7.57
2019-02-25T11:01:08.481Z,6.57
2019-02-25T11:03:36.879Z,6.20
2019-02-25T11:06:05.321Z,7.80
2019-02-25T11:08:35.136Z,6.53
2019-02-25T11:11:16.213Z,6.53
2019-02-25T11:13:44.622Z,5.60
2019-02-25T11:16:14.009Z,5.77
2019-02-25T11:18:43.412Z,6.23
2019-02-25T11:21:11.943Z,6.93
2019-02-25T11:23:40.426Z,6.00
2019-02-25T11:26:09.368Z,5.00
2019-02-25T11:28:39.161Z,5.93
2019-02-25T11:31:08.177Z,5.07
2019-02-25T11:33:36.702Z,4.27
2019-02-25T11:36:05.182Z,4.10
2019-02-25T11:38:37.096Z,3.50
2019-02-25T11:41:06.365Z,3.63
2019-02-25T11:43:34.182Z,3.80
2019-02-25T11:46:02.800Z,3.07
2019-02-25T11:48:31.285Z,3.20
2019-02-25T11:50:59.901Z,2.50
2019-02-25T11:53:28.363Z,2.80
2019-02-25T11:55:56.862Z,3.60
2019-02-25T11:58:25.421Z,3.13
2019-02-25T12:00:54.078Z,3.23
2019-02-25T12:07:02.446Z,3.40
2019-02-25T12:09:31.006Z,3.50
2019-02-25T12:11:59.548Z,3.50
2019-02-25T12:14:28.006Z,3.53
2019-02-25T12:16:56.483Z,3.30
2019-02-25T12:19:24.942Z,2.87
2019-02-25T12:21:53.422Z,2.53
2019-02-25T12:24:21.880Z,3.40
2019-02-25T12:26:50.359Z,2.90
2019-02-25T12:29:18.832Z,3.00
2019-02-25T12:31:47.315Z,2.70
2019-02-25T12:34:15.810Z,2.53
2019-02-25T12:36:44.356Z,2.80
2019-02-25T12:39:12.920Z,2.60
2019-02-25T12:41:41.383Z,2.40
2019-02-25T12:44:09.894Z,2.40
2019-02-25T12:46:39.155Z,1.83
2019-02-25T12:49:07.726Z,1.77
2019-02-25T12:51:36.198Z,1.40
2019-02-25T12:54:04.766Z,1.33
2019-02-25T12:56:33.328Z,1.30
2019-02-25T12:59:01.901Z,1.50
2019-02-25T13:01:30.445Z,1.60
2019-02-25T13:03:58.946Z,1.40
2019-02-25T13:06:27.414Z,1.33
2019-02-25T13:08:55.967Z,1.20
2019-02-25T13:11:24.570Z,1.20
2019-02-25T13:13:53.088Z,1.30
2019-02-25T13:16:21.598Z,1.43
2019-02-25T13:18:50.138Z,1.43
2019-02-25T13:21:18.724Z,1.20
2019-02-25T13:23:47.266Z,1.00
2019-02-25T13:26:15.819Z,1.17
2019-02-25T13:28:44.378Z,1.40
2019-02-25T13:31:12.960Z,1.70
2019-02-25T13:33:41.476Z,1.63
2019-02-25T13:36:13.151Z,1.73
2019-02-25T13:38:41.695Z,1.83
2019-02-25T13:41:10.234Z,1.70
2019-02-25T13:43:38.770Z,1.27
2019-02-25T13:46:07.416Z,1.40
2019-02-25T13:48:35.971Z,1.80
2019-02-25T13:51:04.731Z,1.40
2019-02-25T13:53:33.274Z,1.83
2019-02-25T13:56:01.945Z,1.70
2019-02-25T13:58:30.501Z,1.53
2019-02-25T14:00:59.071Z,1.63
2019-02-25T14:03:27.707Z,1.40
2019-02-25T14:05:56.329Z,1.33
2019-02-25T14:08:25.126Z,1.30
2019-02-25T14:10:53.714Z,1.10
2019-02-25T14:13:22.277Z,1.30
2019-02-25T14:15:50.794Z,1.40
2019-02-25T14:18:19.361Z,1.40
2019-02-25T14:20:47.921Z,1.63
2019-02-25T14:23:18.444Z,1.57
2019-02-25T14:25:46.831Z,1.60
2019-02-25T14:28:15.459Z,1.30
2019-02-25T14:30:44.080Z,1.50
2019-02-25T14:33:14.751Z,1.67
2019-02-25T14:35:42.914Z,1.37
2019-02-25T14:38:17.374Z,1.30
2019-02-25T14:40:44.868Z,1.27
2019-02-25T14:43:15.611Z,3.93
2019-02-25T14:45:46.420Z,1.60
2019-02-25T14:48:18.238Z,1.70
2019-02-25T14:50:44.738Z,1.30
2019-02-25T14:53:14.372Z,1.20
2019-02-25T14:55:46.823Z,1.17
2019-02-25T14:58:15.502Z,1.37
2019-02-25T15:00:43.729Z,1.30
2019-02-25T15:03:12.288Z,1.40
2019-02-25T15:05:41.108Z,1.10
2019-02-25T15:08:10.084Z,1.10
2019-02-25T15:10:40.702Z,0.90
2019-02-25T15:13:10.616Z,0.90
2019-02-25T15:15:41.150Z,1.20
2019-02-25T15:18:09.524Z,1.03
2019-02-25T15:20:38.111Z,1.00
2019-02-25T15:23:07.499Z,1.03
2019-02-25T15:25:40.252Z,1.00
2019-02-25T15:28:09.680Z,1.20
2019-02-25T15:30:36.475Z,1.37
2019-02-25T15:33:05.029Z,1.30
2019-02-25T15:35:35.091Z,1.07
2019-02-25T15:38:04.101Z,1.10
2019-02-25T15:40:32.733Z,1.20
2019-02-25T15:43:13.370Z,1.47
2019-02-25T15:45:43.796Z,1.50
2019-02-25T15:48:17.616Z,1.93
2019-02-25T15:50:48.416Z,1.90
2019-02-25T15:53:16.592Z,1.80
2019-02-25T15:55:45.220Z,1.80
2019-02-25T15:58:13.791Z,1.90
2019-02-25T16:00:44.157Z,1.87
2019-02-25T16:03:13.754Z,2.00
2019-02-25T16:05:44.171Z,2.10
2019-02-25T16:08:16.140Z,1.80
2019-02-25T16:10:43.727Z,2.10
2019-02-25T16:13:14.280Z,2.37
2019-02-25T16:15:42.726Z,2.53
2019-02-25T16:18:13.780Z,2.50
2019-02-25T16:20:45.783Z,2.80
2019-02-25T16:23:12.971Z,2.57
2019-02-25T16:25:41.970Z,2.13
2019-02-25T16:28:12.559Z,2.20
2019-02-25T16:30:42.433Z,2.73
2019-02-25T16:33:12.618Z,2.43
2019-02-25T16:35:41.687Z,3.27
2019-02-25T16:38:11.444Z,3.00
2019-02-25T16:40:40.243Z,3.23
2019-02-25T16:43:12.077Z,3.20
2019-02-25T16:45:40.173Z,3.40
2019-02-25T16:48:09.364Z,3.40
2019-02-25T16:50:39.795Z,3.20
2019-02-25T16:53:10.287Z,4.00
2019-02-25T16:55:40.486Z,3.47
2019-02-25T16:58:11.235Z,3.53
2019-02-25T17:00:39.505Z,3.90
2019-02-25T17:03:10.648Z,3.43
2019-02-25T17:05:40.286Z,3.83
2019-02-25T17:08:12.613Z,3.03
2019-02-25T17:10:41.481Z,3.50
2019-02-25T17:13:10.907Z,3.67
2019-02-25T17:15:40.260Z,3.70
2019-02-25T17:18:09.224Z,3.40
2019-02-25T17:20:37.850Z,3.27
2019-02-25T17:23:09.568Z,4.03
2019-02-25T17:25:38.431Z,6.80
2019-02-25T17:28:08.180Z,4.83
2019-02-25T17:30:38.591Z,4.83
2019-02-25T17:33:10.044Z,4.47
2019-02-25T17:35:39.143Z,3.90
2019-02-25T17:38:07.762Z,4.50
2019-02-25T17:40:36.376Z,5.07
2019-02-25T17:43:05.778Z,5.33
2019-02-25T17:45:36.682Z,5.27
2019-02-25T17:48:06.020Z,5.47
2019-02-25T17:50:37.000Z,4.53
2019-02-25T17:53:07.151Z,5.00
2019-02-25T17:55:36.302Z,5.70
2019-02-25T17:58:05.099Z,5.03
2019-02-25T18:00:39.535Z,5.73
2019-02-25T18:03:08.471Z,5.17
2019-02-25T18:05:38.766Z,5.37
2019-02-25T18:08:10.539Z,4.33
2019-02-25T18:10:39.418Z,4.27
2019-02-25T18:13:08.678Z,4.27
2019-02-25T18:15:38.150Z,5.23
2019-02-25T18:18:09.165Z,7.03
2019-02-25T18:20:38.935Z,10.70
2019-02-25T18:23:07.568Z,10.17
2019-02-25T18:25:37.691Z,8.07
2019-02-25T18:28:08.376Z,7.40
2019-02-25T18:30:36.656Z,7.37
2019-02-25T18:33:05.630Z,7.43
2019-02-25T18:35:36.363Z,7.13
2019-02-25T18:38:06.768Z,8.53
2019-02-25T18:40:35.833Z,10.03
2019-02-25T18:43:06.820Z,8.33
2019-02-25T18:45:37.792Z,8.20
2019-02-25T18:48:07.618Z,7.93
2019-02-25T18:50:36.394Z,7.70
2019-02-25T18:53:05.315Z,8.27
2019-02-25T18:55:34.476Z,7.27
2019-02-25T18:58:05.167Z,8.37
2019-02-25T19:00:37.241Z,7.47
2019-02-25T19:03:06.758Z,7.53
2019-02-25T19:05:35.558Z,8.30
2019-02-25T19:08:09.686Z,7.80
2019-02-25T19:10:41.466Z,7.57
2019-02-25T19:13:09.183Z,7.73
2019-02-25T19:15:37.859Z,7.63
2019-02-25T19:18:06.875Z,7.53
2019-02-25T19:20:37.172Z,7.77
2019-02-25T19:23:09.494Z,8.27
2019-02-25T19:25:37.973Z,7.33
2019-02-25T19:28:06.896Z,7.17
2019-02-25T19:30:35.791Z,7.93
2019-02-25T19:33:11.060Z,7.73
2019-02-25T19:35:36.083Z,8.40
2019-02-25T19:38:07.560Z,8.57
2019-02-25T19:40:38.441Z,7.60
2019-02-25T19:43:06.718Z,7.30
2019-02-25T19:45:36.428Z,7.63
2019-02-25T19:48:07.211Z,8.03
2019-02-25T19:50:38.538Z,7.43
2019-02-25T19:53:07.647Z,7.00
2019-02-25T19:55:38.652Z,6.27
2019-02-25T19:58:06.477Z,6.60
2019-02-25T20:00:35.928Z,6.13
2019-02-25T20:03:06.061Z,7.17
2019-02-25T20:05:38.905Z,7.40
2019-02-25T20:08:05.299Z,6.43
2019-02-25T20:10:34.145Z,7.37
2019-02-25T20:13:05.635Z,7.40
2019-02-25T20:15:33.047Z,6.50
2019-02-25T20:18:01.603Z,6.27
2019-02-25T20:20:32.475Z,6.13
2019-02-25T20:23:03.826Z,6.27
2019-02-25T20:25:32.414Z,6.43
2019-02-25T20:28:02.530Z,6.17
2019-02-25T20:30:31.435Z,6.67
2019-02-25T20:33:01.230Z,6.77
2019-02-25T20:35:31.318Z,7.27
2019-02-25T20:38:00.444Z,6.57
2019-02-25T20:40:31.046Z,6.70
2019-02-25T20:43:02.868Z,7.17
2019-02-25T20:45:35.425Z,7.67
2019-02-25T20:48:04.180Z,6.80
2019-02-25T20:50:32.853Z,7.23
2019-02-25T20:53:05.553Z,9.00
2019-02-25T20:55:33.903Z,8.30
2019-02-25T20:58:01.858Z,8.80
2019-02-25T21:00:30.525Z,9.23
2019-02-25T21:02:59.055Z,9.17
2019-02-25T21:05:27.650Z,10.20
2019-02-25T21:07:57.966Z,9.00
2019-02-25T21:10:27.874Z,7.63
2019-02-25T21:12:57.720Z,8.17
2019-02-25T21:15:26.956Z,8.53
2019-02-25T21:17:57.589Z,8.40
2019-02-25T21:20:28.353Z,7.50
2019-02-25T21:22:57.789Z,7.03
2019-02-25T21:25:26.887Z,7.23
2019-02-25T21:27:59.239Z,8.77
2019-02-25T21:30:26.577Z,7.50
2019-02-25T21:32:57.208Z,6.40
2019-02-25T21:35:27.563Z,6.30
2019-02-25T21:37:55.587Z,6.00
2019-02-25T21:40:27.116Z,5.73
2019-02-25T21:42:56.620Z,6.47
2019-02-25T21:45:27.513Z,5.87
2019-02-25T21:47:56.619Z,7.10
2019-02-25T21:50:28.377Z,6.60
2019-02-25T21:52:55.937Z,6.57
2019-02-25T21:55:27.450Z,6.57
2019-02-25T21:57:55.461Z,6.77
2019-02-25T22:00:27.138Z,6.90
2019-02-25T22:02:56.174Z,6.40
2019-02-25T22:05:24.648Z,5.57
2019-02-25T22:07:55.330Z,6.30
2019-02-25T22:10:23.405Z,5.47
2019-02-25T22:12:51.903Z,4.93
2019-02-25T22:15:22.406Z,5.80
2019-02-25T22:17:53.287Z,5.23
2019-02-25T22:20:22.542Z,5.83
2019-02-25T22:22:54.491Z,6.73
2019-02-25T22:25:22.361Z,7.13
2019-02-25T22:27:50.934Z,6.90
2019-02-25T22:30:19.703Z,6.20
2019-02-25T22:32:48.241Z,7.13
2019-02-25T22:35:16.684Z,7.13
2019-02-25T22:37:49.396Z,7.93
2019-02-25T22:40:17.226Z,6.93
2019-02-25T22:42:48.062Z,7.30
2019-02-25T22:45:18.784Z,7.03
2019-02-25T22:47:47.641Z,6.03
2019-02-25T22:50:18.908Z,6.07
2019-02-25T22:52:52.238Z,6.40
2019-02-25T22:55:19.782Z,5.70
2019-02-25T22:57:50.557Z,6.23
2019-02-25T23:00:36.568Z,6.33
2019-02-25T23:03:05.187Z,6.37
2019-02-25T23:05:33.755Z,6.00
2019-02-25T23:08:02.226Z,5.73
2019-02-25T23:10:30.795Z,6.20
2019-02-25T23:12:59.322Z,6.20
2019-02-25T23:15:30.309Z,6.17
2019-02-25T23:18:04.912Z,6.70
2019-02-25T23:20:29.573Z,7.27
2019-02-25T23:23:00.061Z,6.30
2019-02-25T23:25:28.610Z,6.10
2019-02-25T23:27:58.468Z,5.90
2019-02-25T23:30:27.258Z,5.90
2019-02-25T23:32:55.766Z,6.40
2019-02-25T23:35:25.402Z,5.83
2019-02-25T23:37:56.246Z,5.50
2019-02-25T23:40:24.311Z,6.03
2019-02-25T23:42:52.798Z,5.57
2019-02-25T23:45:23.189Z,5.10
2019-02-25T23:47:55.144Z,5.43
2019-02-25T23:50:22.107Z,5.43
2019-02-25T23:52:50.659Z,6.53
2019-02-25T23:55:21.741Z,5.53
2019-02-25T23:57:49.504Z,5.90
